Time;durP1;ratioP1;P1;durP2;ratioP2;P2;SDS_P1;SDS_P2;PMS_P1;PMS_P2;Temp;Humidity;BMP_temperature;BMP_pressure;BME280_temperature;BME280_humidity;BME280_pressure;Samples;Min_cycle;Max_cycle;Signal;HPM_P1;HPM_P2
2022/08/21 00:01:46;;;;;;;5.87;1.77;;;;;;;26.09;54.20;98264.28;6189133;23;20150;-85
2022/08/21 00:04:12;;;;;;;7.17;2.30;;;;;;;26.16;53.61;98270.53;6190504;23;20154;-85
2022/08/21 00:06:37;;;;;;;8.70;2.20;;;;;;;26.23;54.02;98271.38;6191397;23;20186;-85
2022/08/21 00:09:05;;;;;;;3.87;1.53;;;;;;;26.31;53.66;98272.25;6217438;23;20152;-85
2022/08/21 00:11:31;;;;;;;6.70;2.30;;;;;;;26.16;54.35;98267.00;6191454;23;20154;-85
2022/08/21 00:13:57;;;;;;;4.13;1.50;;;;;;;26.29;53.93;98252.78;6217368;23;20150;-85
2022/08/21 00:16:22;;;;;;;7.37;1.57;;;;;;;26.31;53.92;98256.94;6217722;23;20213;-85
2022/08/21 00:18:48;;;;;;;6.63;2.07;;;;;;;26.30;53.77;98244.56;6191764;23;20303;-85
2022/08/21 00:21:15;;;;;;;4.80;1.63;;;;;;;26.44;53.09;98254.28;6217964;23;20154;-86
2022/08/21 00:23:42;;;;;;;6.97;1.67;;;;;;;26.52;52.84;98247.94;6191034;23;20600;-85
2022/08/21 00:26:08;;;;;;;3.83;1.47;;;;;;;26.43;53.26;98249.13;6190881;23;20192;-85
2022/08/21 00:28:33;;;;;;;7.57;2.20;;;;;;;26.23;53.79;98249.88;6217234;23;20173;-85
2022/08/21 00:30:59;;;;;;;3.50;1.60;;;;;;;26.21;53.73;98251.13;6217574;23;20241;-86
2022/08/21 00:33:25;;;;;;;5.30;2.00;;;;;;;26.40;52.75;98265.66;6217553;23;20134;-86
2022/08/21 00:35:51;;;;;;;5.83;1.57;;;;;;;26.41;52.57;98256.56;6217175;23;20185;-86
2022/08/21 00:38:17;;;;;;;4.40;1.77;;;;;;;26.40;53.00;98265.66;6217755;23;20154;-85
2022/08/21 00:40:49;;;;;;;4.23;1.70;;;;;;;26.48;52.39;98260.09;6217091;23;20146;-86
2022/08/21 00:43:20;;;;;;;4.07;1.60;;;;;;;26.49;51.99;98261.78;6217387;23;20149;-86
2022/08/21 00:45:46;;;;;;;7.13;1.87;;;;;;;26.63;51.49;98256.22;6217410;23;20483;-86
2022/08/21 00:48:11;;;;;;;5.57;1.67;;;;;;;26.60;51.38;98253.09;6217262;23;20185;-85
2022/08/21 00:50:43;;;;;;;4.13;1.30;;;;;;;26.67;51.43;98254.78;6217637;23;20232;-85
2022/08/21 00:53:11;;;;;;;6.03;2.43;;;;;;;26.84;50.88;98258.75;6217360;23;20145;-86
2022/08/21 00:55:37;;;;;;;2.10;1.30;;;;;;;26.87;51.33;98254.00;6190647;23;20153;-86
2022/08/21 00:58:05;;;;;;;5.67;1.97;;;;;;;26.91;51.72;98253.41;6216982;23;20287;-86
2022/08/21 01:00:35;;;;;;;5.97;1.50;;;;;;;27.05;50.99;98238.91;6217266;23;20146;-85
2022/08/21 01:03:05;;;;;;;6.33;1.87;;;;;;;27.16;50.77;98235.63;6216939;23;20184;-85
2022/08/21 01:05:31;;;;;;;6.00;2.30;;;;;;;27.24;50.56;98234.56;6216862;23;20170;-85
2022/08/21 01:07:59;;;;;;;7.30;1.80;;;;;;;27.31;50.68;98228.16;6190581;23;20244;-85
2022/08/21 01:10:25;;;;;;;6.83;1.83;;;;;;;27.34;50.51;98216.97;6216817;23;20154;-85
2022/08/21 01:12:55;;;;;;;9.73;2.00;;;;;;;27.35;50.89;98218.63;6217473;23;20188;-85
2022/08/21 01:15:24;;;;;;;2.97;1.50;;;;;;;27.40;50.75;98212.66;6190546;23;20153;-86
2022/08/21 01:17:50;;;;;;;5.00;1.93;;;;;;;27.48;50.51;98201.66;6190523;23;20490;-85
2022/08/21 01:20:16;;;;;;;4.03;1.97;;;;;;;27.48;50.77;98198.97;6190441;23;20585;-86
2022/08/21 01:22:42;;;;;;;5.60;2.05;;;;;;;27.51;50.79;98200.41;6217030;23;20156;-86
2022/08/21 01:25:09;;;;;;;3.03;1.70;;;;;;;27.60;51.03;98194.56;6216677;23;20150;-86
2022/08/21 01:27:35;;;;;;;6.03;2.47;;;;;;;27.58;50.39;98203.91;6216861;23;20239;-85
2022/08/21 01:30:13;;;;;;;5.40;2.05;;;;;;;27.48;50.36;98200.81;6216991;23;20150;-86
2022/08/21 01:32:38;;;;;;;7.53;1.75;;;;;;;27.50;50.24;98193.34;6216555;23;20162;-86
2022/08/21 01:35:05;;;;;;;4.38;1.75;;;;;;;27.59;50.18;98200.19;6216940;23;20248;-86
2022/08/21 01:37:30;;;;;;;4.27;1.83;;;;;;;27.63;49.68;98204.94;6216511;23;20142;-85
2022/08/21 01:39:56;;;;;;;3.30;1.83;;;;;;;27.63;49.96;98196.84;6217212;23;20149;-85
2022/08/21 01:42:21;;;;;;;7.45;2.33;;;;;;;27.62;50.30;98197.06;6216498;23;20562;-85
2022/08/21 01:44:47;;;;;;;7.20;2.35;;;;;;;27.55;50.32;98198.94;6216816;23;20584;-85
2022/08/21 01:47:14;;;;;;;10.67;2.13;;;;;;;27.52;50.18;98191.28;6216344;23;20212;-85
2022/08/21 01:49:40;;;;;;;6.65;2.13;;;;;;;27.42;50.27;98192.56;6216729;23;20563;-85
2022/08/21 01:52:06;;;;;;;2.47;1.10;;;;;;;27.39;50.15;98187.59;6216438;23;20145;-86
2022/08/21 01:54:32;;;;;;;7.93;2.30;;;;;;;27.38;50.71;98195.84;6217005;23;20157;-86
2022/08/21 01:56:59;;;;;;;5.63;1.58;;;;;;;27.36;50.43;98193.34;6216634;23;20156;-85
2022/08/21 01:59:25;;;;;;;5.00;2.07;;;;;;;27.34;50.53;98195.44;6216990;23;20149;-86
2022/08/21 02:01:50;;;;;;;6.45;1.92;;;;;;;27.18;50.90;98201.25;6216214;23;20160;-86
2022/08/21 02:04:16;;;;;;;3.83;1.83;;;;;;;27.15;51.09;98195.47;6216623;23;20216;-85
2022/08/21 02:06:42;;;;;;;9.40;2.03;;;;;;;27.12;50.83;98195.88;6216150;23;20654;-85
2022/08/21 02:09:10;;;;;;;6.10;1.93;;;;;;;27.14;51.26;98200.03;6190307;23;20154;-86
2022/08/21 02:11:40;;;;;;;3.13;1.80;;;;;;;27.23;50.36;98212.22;6216163;23;20225;-86
2022/08/21 02:14:06;;;;;;;5.70;2.53;;;;;;;27.18;50.51;98217.38;6216210;23;20150;-86
2022/08/21 02:16:32;;;;;;;6.53;2.00;;;;;;;27.14;51.72;98223.41;6216525;23;20577;-86
2022/08/21 02:18:57;;;;;;;5.80;2.13;;;;;;;27.11;52.23;98227.34;6190345;23;20154;-86
2022/08/21 02:21:22;;;;;;;5.93;2.00;;;;;;;27.07;52.66;98228.78;6216154;23;20185;-86
2022/08/21 02:23:48;;;;;;;2.73;1.50;;;;;;;27.01;52.73;98226.94;6190612;23;20510;-86
2022/08/21 02:26:13;;;;;;;4.30;2.57;;;;;;;26.65;54.56;98232.63;6216100;23;20263;-86
2022/08/21 02:28:39;;;;;;;6.97;2.73;;;;;;;26.35;56.21;98238.56;6216623;23;20149;-86
2022/08/21 02:31:06;;;;;;;12.03;2.47;;;;;;;26.07;57.71;98244.03;6215788;23;20584;-86
2022/08/21 02:33:31;;;;;;;7.37;2.47;;;;;;;26.01;57.91;98242.13;6189815;23;20536;-86
2022/08/21 02:35:58;;;;;;;5.10;2.50;;;;;;;26.01;57.82;98239.44;6189639;23;20165;-86
2022/08/21 02:38:27;;;;;;;5.57;2.20;;;;;;;25.98;57.92;98237.16;6216332;23;20173;-86
2022/08/21 02:40:53;;;;;;;8.03;3.00;;;;;;;26.08;57.08;98240.28;6215969;23;20149;-86
2022/08/21 02:43:21;;;;;;;7.13;2.80;;;;;;;26.11;57.22;98251.47;6216230;23;20183;-85
2022/08/21 02:45:48;;;;;;;4.70;2.43;;;;;;;26.22;56.65;98247.41;6189744;23;20533;-86
2022/08/21 02:48:18;;;;;;;8.30;2.53;;;;;;;26.11;57.43;98256.00;6215797;23;20181;-86
2022/08/21 02:50:47;;;;;;;6.07;2.60;;;;;;;26.05;57.00;98256.81;6189782;23;20554;-86
2022/08/21 02:53:16;;;;;;;6.03;2.33;;;;;;;26.15;56.74;98271.56;6189634;23;20583;-85
2022/08/21 02:55:43;;;;;;;5.70;2.83;;;;;;;26.11;57.01;98283.72;6216227;23;20215;-86
2022/08/21 02:58:09;;;;;;;4.50;2.20;;;;;;;26.01;57.46;98294.00;6215841;23;20146;-85
2022/08/21 03:00:37;;;;;;;5.37;2.70;;;;;;;25.95;57.43;98292.09;6215840;23;20145;-85
2022/08/21 03:03:03;;;;;;;4.67;2.20;;;;;;;25.91;57.71;98292.69;6216097;23;20514;-85
2022/08/21 03:05:31;;;;;;;7.73;2.97;;;;;;;26.04;57.09;98290.06;6189604;23;20160;-85
2022/08/21 03:07:58;;;;;;;9.90;2.63;;;;;;;26.04;57.67;98292.75;6215650;23;20676;-85
2022/08/21 03:10:24;;;;;;;3.30;1.93;;;;;;;26.19;56.90;98297.00;6216408;23;20528;-85
2022/08/21 03:12:50;;;;;;;5.87;2.67;;;;;;;26.23;56.82;98306.31;6216028;23;20150;-85
2022/08/21 03:15:19;;;;;;;5.93;2.60;;;;;;;26.32;56.74;98308.81;6189837;23;20150;-85
2022/08/21 03:17:45;;;;;;;6.20;2.67;;;;;;;26.38;56.38;98316.09;6189760;23;20153;-86
2022/08/21 03:20:22;;;;;;;6.63;2.30;;;;;;;26.39;56.42;98313.19;6215969;23;20149;-86
2022/08/21 03:22:48;;;;;;;4.67;2.40;;;;;;;26.38;56.30;98310.72;6190583;23;20462;-85
2022/08/21 03:25:13;;;;;;;5.83;2.77;;;;;;;26.39;56.73;98305.13;6215629;23;20173;-85
2022/08/21 03:27:39;;;;;;;4.87;2.07;;;;;;;26.29;56.88;98310.06;6215529;23;20202;-85
2022/08/21 03:30:07;;;;;;;3.60;2.13;;;;;;;26.38;56.69;98310.72;6215586;23;20146;-85
2022/08/21 03:32:33;;;;;;;5.20;1.97;;;;;;;26.43;56.32;98316.31;6215358;23;20193;-86
2022/08/21 03:35:00;;;;;;;4.53;2.23;;;;;;;26.37;56.93;98309.88;6215548;23;20149;-85
2022/08/21 03:37:26;;;;;;;8.63;3.13;;;;;;;26.40;56.81;98311.34;6215869;23;20146;-86
2022/08/21 03:39:51;;;;;;;4.70;2.30;;;;;;;26.55;55.93;98298.56;6217404;23;20474;-86
2022/08/21 03:42:17;;;;;;;8.07;2.70;;;;;;;26.51;56.20;98294.66;6191459;23;20160;-86
2022/08/21 03:44:42;;;;;;;3.97;2.17;;;;;;;26.51;56.01;98289.28;6217673;23;20150;-86
2022/08/21 03:47:09;;;;;;;4.23;1.93;;;;;;;26.55;55.93;98282.44;6218189;23;20178;-86
2022/08/21 03:49:36;;;;;;;6.20;2.30;;;;;;;26.60;55.74;98286.19;6191343;23;20522;-85
2022/08/21 03:52:03;;;;;;;6.20;2.30;;;;;;;26.60;56.12;98282.66;6191293;23;20161;-85
2022/08/21 03:54:29;;;;;;;6.93;2.53;;;;;;;26.59;56.26;98281.84;6217584;23;20203;-85
2022/08/21 03:56:54;;;;;;;6.43;3.30;;;;;;;26.57;57.57;98275.84;6217874;23;20622;-86
2022/08/21 03:59:20;;;;;;;6.93;2.83;;;;;;;26.52;57.76;98281.00;6217489;23;20241;-85
2022/08/21 04:01:59;;;;;;;6.20;2.57;;;;;;;26.42;58.75;98294.00;6217480;23;20471;-85
2022/08/21 04:04:27;;;;;;;8.50;2.40;;;;;;;26.34;59.62;98288.78;6217844;23;20168;-85
2022/08/21 04:06:52;;;;;;;6.40;3.80;;;;;;;26.32;60.20;98284.63;6191036;23;20609;-85
2022/08/21 04:09:18;;;;;;;6.60;3.03;;;;;;;26.21;61.00;98272.63;6217388;23;20149;-85
2022/08/21 04:11:45;;;;;;;6.83;3.43;;;;;;;26.22;60.99;98274.28;6217703;23;20149;-86
2022/08/21 04:14:11;;;;;;;13.23;3.77;;;;;;;26.15;61.80;98282.28;6218043;23;20160;-86
2022/08/21 04:16:36;;;;;;;9.63;4.60;;;;;;;26.10;62.44;98284.72;6217979;23;20146;-86
2022/08/21 04:19:02;;;;;;;10.30;4.33;;;;;;;25.95;63.38;98300.16;6217288;23;20146;-86
2022/08/21 04:21:27;;;;;;;8.20;3.57;;;;;;;25.78;64.61;98317.59;6217645;23;20146;-86
2022/08/21 04:23:56;;;;;;;11.47;4.83;;;;;;;25.49;66.70;98315.97;6191005;23;20169;-87
2022/08/21 04:26:22;;;;;;;7.47;3.70;;;;;;;25.37;67.00;98308.56;6217141;23;20191;-86
2022/08/21 04:28:47;;;;;;;8.80;3.87;;;;;;;25.41;66.72;98305.34;6217189;23;20224;-87
2022/08/21 04:31:13;;;;;;;8.33;4.10;;;;;;;25.34;67.20;98312.47;6217740;23;20255;-87
2022/08/21 04:33:38;;;;;;;12.00;4.37;;;;;;;25.22;68.13;98334.66;6217552;23;20169;-86
2022/08/21 04:36:05;;;;;;;12.27;4.30;;;;;;;25.09;69.46;98329.16;6217491;23;20231;-87
2022/08/21 04:38:33;;;;;;;10.40;4.87;;;;;;;25.14;70.12;98332.94;6190799;23;20192;-87
2022/08/21 04:40:58;;;;;;;9.90;4.70;;;;;;;25.21;69.70;98335.69;6217108;23;20569;-86
2022/08/21 04:43:24;;;;;;;8.27;3.67;;;;;;;25.15;70.59;98334.63;6217105;23;20161;-87
2022/08/21 04:45:51;;;;;;;12.83;4.83;;;;;;;25.12;70.47;98323.44;6217061;23;20153;-87
2022/08/21 04:48:20;;;;;;;9.80;4.43;;;;;;;24.99;71.22;98321.47;6190573;23;20185;-86
2022/08/21 04:51:07;;;;;;;13.50;4.33;;;;;;;25.01;71.66;98319.41;6216730;23;20181;-86
2022/08/21 04:53:37;;;;;;;9.10;4.07;;;;;;;25.11;70.65;98319.06;6190784;23;20154;-86
2022/08/21 04:56:11;;;;;;;8.27;3.90;;;;;;;24.98;72.04;98323.31;6216915;23;20146;-86
2022/08/21 04:58:38;;;;;;;8.83;3.90;;;;;;;25.05;71.69;98313.47;6217230;23;20134;-86
2022/08/21 05:01:08;;;;;;;10.47;4.37;;;;;;;24.87;72.44;98326.47;6217456;23;20216;-86
2022/08/21 05:03:36;;;;;;;14.63;4.70;;;;;;;24.93;72.68;98325.72;6217130;23;20138;-86
2022/08/21 05:06:06;;;;;;;8.60;4.63;;;;;;;25.07;70.97;98333.91;6216658;23;20572;-85
2022/08/21 05:08:33;;;;;;;10.10;4.87;;;;;;;25.01;72.15;98328.28;6190944;23;20164;-86
2022/08/21 05:10:59;;;;;;;11.40;4.47;;;;;;;24.77;73.92;98315.22;6190579;23;20172;-86
2022/08/21 05:13:24;;;;;;;9.00;4.07;;;;;;;24.47;75.25;98316.34;6216712;23;20574;-87
2022/08/21 05:15:50;;;;;;;10.17;3.97;;;;;;;24.26;76.56;98314.44;6190470;23;20153;-86
2022/08/21 05:18:16;;;;;;;9.23;4.30;;;;;;;24.42;76.81;98326.78;6216722;23;20142;-87
2022/08/21 05:20:41;;;;;;;8.87;3.80;;;;;;;24.42;76.46;98332.94;6217114;23;20149;-87
2022/08/21 05:23:12;;;;;;;8.60;3.77;;;;;;;24.50;76.31;98318.63;6216702;23;20481;-87
2022/08/21 05:25:38;;;;;;;8.13;4.10;;;;;;;24.51;76.89;98322.97;6217069;23;20138;-87
2022/08/21 05:28:04;;;;;;;10.00;4.03;;;;;;;24.54;76.61;98314.56;6216590;23;20178;-87
2022/08/21 05:30:29;;;;;;;7.03;3.37;;;;;;;24.53;75.95;98312.88;6216470;23;20505;-88
2022/08/21 05:32:59;;;;;;;8.93;3.70;;;;;;;24.51;76.60;98317.59;6215585;23;20161;-87
2022/08/21 05:35:26;;;;;;;10.53;4.13;;;;;;;24.26;77.07;98314.44;6216366;23;20154;-87
2022/08/21 05:37:51;;;;;;;10.00;3.80;;;;;;;24.07;78.46;98320.31;6216616;23;20142;-87
2022/08/21 05:40:18;;;;;;;9.67;3.20;;;;;;;24.23;78.18;98322.00;6190257;23;20181;-87
2022/08/21 05:42:44;;;;;;;7.20;3.57;;;;;;;24.14;78.28;98318.59;6190252;23;20227;-88
2022/08/21 05:45:11;;;;;;;8.40;3.90;;;;;;;23.84;80.45;98314.22;6190355;23;20177;-87
2022/08/21 05:47:37;;;;;;;12.53;3.87;;;;;;;23.91;80.18;98315.16;6190151;23;20268;-88
2022/08/21 05:50:04;;;;;;;4.97;2.87;;;;;;;24.02;79.15;98305.81;6216484;23;20174;-87
2022/08/21 05:52:29;;;;;;;6.97;3.47;;;;;;;24.07;79.08;98308.78;6216027;23;20157;-88
2022/08/21 05:54:56;;;;;;;6.67;3.03;;;;;;;23.97;78.59;98311.75;6215624;23;20229;-88
2022/08/21 05:57:27;;;;;;;7.93;3.67;;;;;;;24.06;78.63;98315.97;6216061;23;20146;-87
2022/08/21 05:59:54;;;;;;;7.67;2.80;;;;;;;24.01;79.14;98309.50;6190008;23;20149;-87
2022/08/21 06:02:21;;;;;;;7.47;3.37;;;;;;;24.12;79.65;98317.09;6188837;23;20150;-86
2022/08/21 06:04:48;;;;;;;5.37;3.10;;;;;;;24.14;77.75;98315.06;6216171;23;20150;-88
2022/08/21 06:07:15;;;;;;;11.70;4.47;;;;;;;23.94;78.18;98327.34;6215301;23;20235;-87
2022/08/21 06:09:41;;;;;;;9.83;2.60;;;;;;;24.06;78.04;98320.47;6216564;23;20177;-87
2022/08/21 06:12:11;;;;;;;5.90;3.20;;;;;;;23.95;78.28;98323.66;6216518;23;20215;-87
2022/08/21 06:14:40;;;;;;;8.37;3.00;;;;;;;23.91;78.55;98328.53;6216566;23;20153;-87
2022/08/21 06:17:10;;;;;;;5.47;2.77;;;;;;;24.01;78.84;98328.25;6189965;23;20161;-87
2022/08/21 06:19:37;;;;;;;7.80;3.20;;;;;;;24.16;77.45;98331.81;6215943;23;20224;-88
2022/08/21 06:22:04;;;;;;;6.83;3.10;;;;;;;24.10;78.00;98335.22;6215821;23;20592;-87
2022/08/21 06:24:31;;;;;;;12.20;3.60;;;;;;;24.22;77.70;98331.88;6215819;23;20145;-87
2022/08/21 06:27:17;;;;;;;9.13;3.10;;;;;;;24.44;77.04;98333.63;6216261;23;20184;-87
2022/08/21 06:29:53;;;;;;;10.03;2.97;;;;;;;24.46;77.34;98330.72;6215409;23;20215;-87
2022/08/21 06:32:55;;;;;;;;;;;;;;;;;;;;;
2022/08/21 06:35:35;;;;;;;6.63;3.20;;;;;;;24.12;79.57;98335.84;6070129;23;20243;-89
2022/08/21 06:38:21;;;;;;;;;;;;;;;;;;;;;
2022/08/21 06:51:45;;;;;;;7.27;3.17;;;;;;;24.43;79.65;98337.31;6037247;23;20578;-89
2022/08/21 06:59:07;;;;;;;;;;;;;;;;;;;;;
2022/08/21 08:19:00;;;;;;;;;;;;;;;;;;;;;
2022/08/21 08:39:20;;;;;;;;;;;;;;;;;;;;;
2022/08/21 09:05:05;;;;;;;;;;;;;;;;;;;;;
2022/08/21 09:14:40;;;;;;;9.88;3.70;;;;;;;29.06;59.62;98242.19;5692187;25;20628;-91
2022/08/21 09:18:16;;;;;;;8.70;2.70;;;;;;;29.05;59.45;98245.91;5767538;24;20697;-91
2022/08/21 09:24:22;;;;;;;15.75;7.80;;;;;;;28.76;58.74;98246.53;5771539;24;20163;-90
2022/08/21 09:27:07;;;;;;;18.08;9.52;;;;;;;28.67;58.66;98245.16;5802362;24;20184;-90
2022/08/21 09:29:36;;;;;;;13.43;6.43;;;;;;;28.53;57.25;98242.53;5864689;23;20490;-90
2022/08/21 09:32:14;;;;;;;5.57;2.45;;;;;;;28.64;56.84;98243.72;6068120;23;20493;-89
2022/08/21 09:34:40;;;;;;;7.05;3.30;;;;;;;28.83;58.43;98237.34;6068530;23;20220;-89
2022/08/21 09:37:17;;;;;;;7.45;4.30;;;;;;;29.04;57.98;98236.16;6068201;23;20566;-89
2022/08/21 09:39:43;;;;;;;7.40;3.55;;;;;;;28.74;59.06;98236.00;6067725;23;20157;-90
2022/08/21 09:42:10;;;;;;;23.65;9.63;;;;;;;28.53;59.49;98234.44;6066148;23;20633;-89
2022/08/21 09:44:43;;;;;;;13.13;7.13;;;;;;;28.45;59.96;98236.53;6067132;23;20181;-90
2022/08/21 09:47:12;;;;;;;8.18;4.20;;;;;;;28.16;59.02;98243.31;6065965;23;20593;-90
2022/08/21 09:49:40;;;;;;;9.43;4.50;;;;;;;27.98;59.45;98244.00;6067127;23;20153;-90
2022/08/21 09:52:21;;;;;;;7.38;4.00;;;;;;;28.03;60.18;98237.97;6067440;23;20164;-90
2022/08/21 09:54:52;;;;;;;8.45;3.47;;;;;;;28.36;58.47;98237.81;6066200;23;20160;-91
2022/08/21 09:57:39;;;;;;;10.27;3.13;;;;;;;28.46;56.02;98239.00;6067651;23;20161;-89
2022/08/21 10:00:18;;;;;;;11.95;4.03;;;;;;;28.36;57.30;98251.31;6069581;23;20173;-89
2022/08/21 10:02:44;;;;;;;5.30;3.15;;;;;;;28.33;58.06;98241.78;6069673;23;20137;-89
2022/08/21 10:05:19;;;;;;;4.90;3.00;;;;;;;28.55;57.24;98237.72;6069214;23;20228;-90
2022/08/21 10:07:45;;;;;;;5.28;2.63;;;;;;;28.85;56.36;98237.97;6069150;23;20153;-90
2022/08/21 10:10:21;;;;;;;4.60;2.08;;;;;;;28.88;54.18;98231.34;6068121;23;20533;-90
2022/08/21 10:13:10;;;;;;;4.45;2.83;;;;;;;28.87;54.78;98232.38;6069593;23;20564;-90
2022/08/21 10:15:45;;;;;;;12.73;5.32;;;;;;;29.04;53.90;98231.59;6067439;23;20176;-91
2022/08/21 10:18:17;;;;;;;13.75;4.00;;;;;;;28.96;53.34;98226.47;6069370;23;20220;-90
2022/08/21 10:20:57;;;;;;;6.65;2.58;;;;;;;29.22;54.10;98228.16;6067464;23;20196;-89
2022/08/21 10:23:52;;;;;;;5.40;2.55;;;;;;;29.23;49.47;98227.13;6065765;23;20153;-89
2022/08/21 10:26:55;;;;;;;3.03;1.48;;;;;;;29.47;51.98;98223.56;6067393;23;20161;-90
2022/08/21 10:29:48;;;;;;;7.32;2.30;;;;;;;30.00;51.01;98220.31;6067106;23;20160;-89
2022/08/21 10:32:41;;;;;;;6.03;1.98;;;;;;;30.29;50.56;98216.84;6066709;23;20137;-89
2022/08/21 10:35:31;;;;;;;3.65;1.77;;;;;;;30.74;48.42;98209.94;6067091;23;20141;-88
2022/08/21 10:38:42;;;;;;;4.25;2.22;;;;;;;31.18;46.31;98211.38;6067497;23;20173;-88
2022/08/21 10:41:42;;;;;;;5.38;2.30;;;;;;;31.44;45.51;98208.19;6066389;23;20192;-89
2022/08/21 10:44:45;;;;;;;4.38;1.90;;;;;;;31.37;44.97;98201.22;5951941;24;20155;-89
2022/08/21 10:47:23;;;;;;;2.88;1.25;;;;;;;31.52;44.17;98204.34;5951738;24;20170;-90
2022/08/21 10:50:05;;;;;;;4.38;1.95;;;;;;;31.74;43.32;98194.50;5952200;24;20144;-88
2022/08/21 10:53:03;;;;;;;3.55;1.90;;;;;;;31.90;44.50;98196.50;5908752;24;20190;-88
2022/08/21 10:55:43;;;;;;;4.35;2.17;;;;;;;32.25;43.50;98184.75;6045216;23;20165;-89
2022/08/21 10:58:24;;;;;;;4.32;1.88;;;;;;;32.48;42.50;98187.34;6069463;23;20546;-88
2022/08/21 11:01:05;;;;;;;2.47;1.27;;;;;;;32.95;43.33;98180.59;6067998;23;20746;-88
2022/08/21 11:03:43;;;;;;;5.43;2.30;;;;;;;33.26;42.98;98171.91;6068416;23;20181;-88
2022/08/21 11:06:23;;;;;;;7.03;2.80;;;;;;;33.34;41.64;98181.50;6069033;23;20200;-88
2022/08/21 11:09:11;;;;;;;5.13;2.05;;;;;;;33.65;41.67;98167.31;6068838;23;20486;-88
2022/08/21 11:12:16;;;;;;;5.32;2.22;;;;;;;33.95;42.90;98162.28;6067470;23;20489;-88
2022/08/21 11:15:22;;;;;;;5.40;3.00;;;;;;;33.99;40.47;98166.13;6068804;23;20168;-88
2022/08/21 11:18:01;;;;;;;6.22;2.78;;;;;;;33.92;40.96;98165.50;6067407;23;20160;-90
2022/08/21 11:21:01;;;;;;;5.45;2.83;;;;;;;33.91;39.80;98154.88;6068839;23;20165;-88
2022/08/21 11:23:36;;;;;;;3.88;2.20;;;;;;;34.09;41.06;98151.88;6068828;23;20148;-88
2022/08/21 11:26:13;;;;;;;5.80;2.38;;;;;;;34.03;39.17;98152.84;6068832;23;20141;-88
2022/08/21 11:28:57;;;;;;;9.77;2.80;;;;;;;34.30;40.28;98147.47;6067311;23;20171;-89
2022/08/21 11:32:11;;;;;;;7.05;2.72;;;;;;;34.54;39.60;98146.88;6069147;23;20133;-88
2022/08/21 11:35:07;;;;;;;4.25;2.65;;;;;;;34.73;38.62;98135.63;5953900;24;20151;-88
2022/08/21 11:38:13;;;;;;;6.30;2.97;;;;;;;34.97;37.94;98139.63;5953893;24;20140;-89
2022/08/21 11:41:09;;;;;;;6.47;3.50;;;;;;;35.15;37.70;98136.53;5941702;24;20214;-88
2022/08/21 11:43:41;;;;;;;5.82;3.00;;;;;;;35.10;37.54;98126.44;5954507;24;20235;-89
2022/08/21 11:46:36;;;;;;;9.57;3.33;;;;;;;35.05;37.40;98125.56;5930587;24;20160;-89
2022/08/21 11:49:29;;;;;;;6.63;3.83;;;;;;;35.06;36.84;98119.06;6010851;23;20161;-89
2022/08/21 11:52:35;;;;;;;6.63;4.20;;;;;;;35.04;37.65;98113.81;6068627;23;20204;-89
2022/08/21 11:55:23;;;;;;;12.73;3.85;;;;;;;35.16;36.90;98102.75;5953449;24;20600;-89
2022/08/21 11:58:18;;;;;;;9.48;4.30;;;;;;;35.20;36.47;98103.88;5972994;23;20172;-89
2022/08/21 12:00:52;;;;;;;8.65;4.43;;;;;;;35.20;35.87;98103.88;6068153;23;20177;-90
2022/08/21 12:03:34;;;;;;;10.93;3.97;;;;;;;35.28;36.42;98103.38;6067171;23;20541;-89
2022/08/21 12:06:10;;;;;;;7.07;4.25;;;;;;;35.32;36.72;98106.41;6067106;23;20543;-89
2022/08/21 12:08:44;;;;;;;9.15;5.25;;;;;;;35.29;36.79;98099.56;6068650;23;20152;-89
2022/08/21 12:11:15;;;;;;;7.30;4.15;;;;;;;35.39;35.83;98091.44;6068665;23;20138;-89
2022/08/21 12:14:05;;;;;;;7.88;4.68;;;;;;;35.25;36.79;98095.72;6068609;23;20182;-89
2022/08/21 12:16:40;;;;;;;6.65;4.45;;;;;;;35.24;36.27;98088.66;6045465;23;20269;-89
2022/08/21 12:19:10;;;;;;;7.32;4.10;;;;;;;35.28;35.67;98089.75;6067537;23;20152;-88
2022/08/21 12:22:03;;;;;;;7.90;4.22;;;;;;;35.31;35.40;98082.94;6067049;23;20196;-89
2022/08/21 12:24:49;;;;;;;8.07;4.20;;;;;;;35.42;35.28;98071.00;6067043;23;20570;-89
2022/08/21 12:27:29;;;;;;;7.43;4.38;;;;;;;35.47;33.66;98076.47;6069318;23;20546;-90
2022/08/21 12:30:00;;;;;;;6.70;4.93;;;;;;;35.44;35.37;98068.84;6066994;23;20160;-89
2022/08/21 12:32:41;;;;;;;8.00;4.53;;;;;;;35.72;34.91;98065.69;6068888;23;20183;-89
2022/08/21 12:35:18;;;;;;;8.43;4.10;;;;;;;35.93;34.47;98067.41;6067662;23;20216;-91
2022/08/21 12:37:48;;;;;;;8.85;4.57;;;;;;;35.65;35.28;98063.25;6067110;23;20225;-90
2022/08/21 12:40:16;;;;;;;7.32;3.90;;;;;;;35.59;35.53;98074.38;6068371;23;20205;-89
2022/08/21 12:42:52;;;;;;;6.57;4.38;;;;;;;35.57;34.94;98066.47;6066940;23;20168;-91
2022/08/21 12:45:29;;;;;;;10.50;4.28;;;;;;;35.21;35.62;98078.28;6068428;23;20160;-90
2022/08/21 12:48:09;;;;;;;4.90;3.38;;;;;;;35.20;35.59;98065.72;6069681;23;20141;-89
2022/08/21 12:50:40;;;;;;;6.43;3.72;;;;;;;35.39;35.79;98068.81;6067715;23;20155;-89
2022/08/21 12:53:10;;;;;;;7.05;4.10;;;;;;;35.43;36.08;98069.94;6067167;23;20566;-89
2022/08/21 12:55:41;;;;;;;7.63;3.40;;;;;;;35.46;36.52;98070.22;6067720;23;20188;-91
2022/08/21 12:58:32;;;;;;;9.10;3.95;;;;;;;35.31;35.93;98072.03;6067461;23;20169;-89
2022/08/21 13:01:13;;;;;;;6.68;3.63;;;;;;;35.11;35.55;98064.59;6067704;23;20192;-90
2022/08/21 13:03:40;;;;;;;7.43;3.65;;;;;;;35.10;36.28;98065.66;6066484;23;20533;-89
2022/08/21 13:06:06;;;;;;;8.85;4.10;;;;;;;34.59;37.04;98064.50;6068087;23;20164;-90
2022/08/21 13:08:36;;;;;;;9.05;4.47;;;;;;;34.53;37.64;98068.22;6070441;23;20239;-89
2022/08/21 13:11:06;;;;;;;10.60;4.38;;;;;;;34.52;38.32;98067.38;6068628;23;20224;-89
2022/08/21 13:13:33;;;;;;;7.53;4.22;;;;;;;34.22;39.39;98061.69;6069728;23;20161;-90
2022/08/21 13:16:09;;;;;;;9.35;4.47;;;;;;;34.19;39.15;98070.34;6069538;23;20169;-89
2022/08/21 13:18:40;;;;;;;7.15;4.25;;;;;;;33.97;38.83;98066.81;6070069;23;20200;-91
2022/08/21 13:21:14;;;;;;;6.72;3.90;;;;;;;33.93;39.32;98071.16;6068458;23;20516;-89
2022/08/21 13:23:40;;;;;;;7.47;4.35;;;;;;;33.96;39.93;98059.75;6070258;23;20216;-89
2022/08/21 13:26:18;;;;;;;8.48;3.97;;;;;;;33.82;40.03;98069.38;6070026;23;20179;-90
2022/08/21 13:28:47;;;;;;;4.88;3.15;;;;;;;33.76;40.20;98065.78;6069500;23;20476;-90
2022/08/21 13:31:24;;;;;;;6.13;3.47;;;;;;;33.64;40.15;98067.00;6068811;23;20153;-89
2022/08/21 13:33:51;;;;;;;6.70;3.28;;;;;;;33.19;40.81;98067.22;6065674;23;20161;-89
2022/08/21 13:36:26;;;;;;;7.57;3.75;;;;;;;33.00;41.18;98066.66;6068396;23;20164;-90
2022/08/21 13:38:56;;;;;;;8.05;3.58;;;;;;;32.55;42.61;98069.47;6019176;23;20625;-88
2022/08/21 13:41:40;;;;;;;6.32;3.90;;;;;;;32.33;42.50;98060.41;6068514;23;20249;-89
2022/08/21 13:44:30;;;;;;;6.63;3.92;;;;;;;31.82;43.74;98063.22;6063924;23;20161;-90
2022/08/21 13:46:57;;;;;;;8.82;3.95;;;;;;;31.81;43.84;98057.00;6069250;23;20141;-90
2022/08/21 13:49:45;;;;;;;9.10;3.63;;;;;;;31.87;44.08;98056.00;6068530;23;20156;-88
2022/08/21 13:52:21;;;;;;;6.38;3.63;;;;;;;31.95;44.19;98050.19;6067601;23;20168;-89
2022/08/21 13:54:58;;;;;;;7.15;3.50;;;;;;;32.03;43.99;98049.00;6068218;23;20180;-91
2022/08/21 13:57:30;;;;;;;7.68;3.85;;;;;;;31.84;44.51;98045.66;6067844;23;20157;-90
2022/08/21 14:00:18;;;;;;;11.88;4.22;;;;;;;31.94;44.12;98045.03;6069233;23;20173;-89
2022/08/21 14:02:49;;;;;;;7.97;3.83;;;;;;;31.68;44.72;98046.47;6069373;23;20224;-89
2022/08/21 14:05:31;;;;;;;8.00;3.72;;;;;;;31.60;45.56;98042.22;6068102;23;20150;-89
2022/08/21 14:08:14;;;;;;;6.60;3.85;;;;;;;31.44;45.17;98050.25;6069785;23;20157;-90
2022/08/21 14:10:50;;;;;;;6.57;3.72;;;;;;;31.59;45.41;98047.88;6068839;23;20520;-89
2022/08/21 14:13:41;;;;;;;7.38;3.33;;;;;;;31.26;46.25;98040.44;6069539;23;20161;-89
2022/08/21 14:16:18;;;;;;;8.73;3.78;;;;;;;31.30;45.92;98049.69;6067521;23;20613;-89
2022/08/21 14:19:01;;;;;;;8.10;3.58;;;;;;;31.05;46.64;98049.16;6069396;23;20189;-89
2022/08/21 14:21:36;;;;;;;6.22;3.25;;;;;;;31.08;47.62;98045.97;6067879;23;20188;-89
2022/08/21 14:24:09;;;;;;;6.47;3.72;;;;;;;31.04;47.00;98052.94;6069169;23;20145;-90
2022/08/21 14:26:42;;;;;;;7.82;3.90;;;;;;;30.94;47.59;98045.41;6067940;23;20584;-89
2022/08/21 14:29:09;;;;;;;10.52;3.72;;;;;;;30.71;47.77;98040.00;6069135;23;20634;-90
2022/08/21 14:31:35;;;;;;;6.05;3.05;;;;;;;30.45;48.66;98045.84;6067931;23;20243;-88